Auburn, Iowa
Current Conditions -  °F | °C
As of 8:15 AM on Thursday 18 Dec 2014 (Local Time) from KCIN Reporting Station
Overcast Overcast  
Wind Chill: 14°   Ceiling: 7500
Heat Index: 21°   Visibility: 10mi
Dew Point: 19°   Wind: 6mph
Humidity: 93%   Direction: 120°ESE
Pressure: 30.26"   Gusts: NA
Location:  42.25°N, 94.88°W
Report Text: KCIN 181415Z AUTO 12005KT 10SM SCT039 BKN075 OVC100 M06/M07 A3026 RMK AO2
Loading
Personal Weather Stations






























Interactive Weather Map New forecast layout! Learn more

10-Day Weather Forecast

Advertisements
Track Severe Weather on mobile